sensor_id;sensor_type;location;lat;lon;timestamp;temperature;humidity
71206;SHT31;58935;54.498;18.544;2023-04-25T00:02:21;12.66;80.29
71206;SHT31;58935;54.498;18.544;2023-04-25T00:04:47;12.66;80.19
71206;SHT31;58935;54.498;18.544;2023-04-25T00:07:14;12.66;80.11
71206;SHT31;58935;54.498;18.544;2023-04-25T00:09:41;12.68;80.17
71206;SHT31;58935;54.498;18.544;2023-04-25T00:12:09;12.70;80.14
71206;SHT31;58935;54.498;18.544;2023-04-25T00:14:35;12.74;80.04
71206;SHT31;58935;54.498;18.544;2023-04-25T00:17:01;12.75;79.90
71206;SHT31;58935;54.498;18.544;2023-04-25T00:19:27;12.74;79.86
71206;SHT31;58935;54.498;18.544;2023-04-25T00:21:55;12.73;79.99
71206;SHT31;58935;54.498;18.544;2023-04-25T00:24:20;12.72;80.00
71206;SHT31;58935;54.498;18.544;2023-04-25T00:26:46;12.73;80.06
71206;SHT31;58935;54.498;18.544;2023-04-25T00:29:11;12.75;80.00
71206;SHT31;58935;54.498;18.544;2023-04-25T00:31:37;12.76;79.98
71206;SHT31;58935;54.498;18.544;2023-04-25T00:34:02;12.77;79.83
71206;SHT31;58935;54.498;18.544;2023-04-25T00:36:31;12.77;79.63
71206;SHT31;58935;54.498;18.544;2023-04-25T00:38:57;12.76;79.47
71206;SHT31;58935;54.498;18.544;2023-04-25T00:41:22;12.73;79.49
71206;SHT31;58935;54.498;18.544;2023-04-25T00:43:52;12.71;79.37
71206;SHT31;58935;54.498;18.544;2023-04-25T00:46:20;12.69;79.30
71206;SHT31;58935;54.498;18.544;2023-04-25T00:48:48;12.67;79.23
71206;SHT31;58935;54.498;18.544;2023-04-25T00:51:14;12.65;79.15
71206;SHT31;58935;54.498;18.544;2023-04-25T00:53:44;12.63;79.12
71206;SHT31;58935;54.498;18.544;2023-04-25T00:56:10;12.60;79.14
71206;SHT31;58935;54.498;18.544;2023-04-25T00:58:36;12.57;79.20
71206;SHT31;58935;54.498;18.544;2023-04-25T01:01:03;12.56;79.21
71206;SHT31;58935;54.498;18.544;2023-04-25T01:03:30;12.55;79.26
71206;SHT31;58935;54.498;18.544;2023-04-25T01:06:00;12.54;79.23
71206;SHT31;58935;54.498;18.544;2023-04-25T01:08:30;12.54;79.32
71206;SHT31;58935;54.498;18.544;2023-04-25T01:10:56;12.53;79.39
71206;SHT31;58935;54.498;18.544;2023-04-25T01:13:21;12.55;79.42
71206;SHT31;58935;54.498;18.544;2023-04-25T01:15:47;12.54;79.43
71206;SHT31;58935;54.498;18.544;2023-04-25T01:18:13;12.54;79.46
71206;SHT31;58935;54.498;18.544;2023-04-25T01:20:39;12.53;79.60
71206;SHT31;58935;54.498;18.544;2023-04-25T01:23:08;12.51;79.74
71206;SHT31;58935;54.498;18.544;2023-04-25T01:25:34;12.49;79.82
71206;SHT31;58935;54.498;18.544;2023-04-25T01:28:03;12.47;79.92
71206;SHT31;58935;54.498;18.544;2023-04-25T01:30:29;12.45;80.05
71206;SHT31;58935;54.498;18.544;2023-04-25T01:32:55;12.44;80.12
71206;SHT31;58935;54.498;18.544;2023-04-25T01:35:24;12.41;80.36
71206;SHT31;58935;54.498;18.544;2023-04-25T01:37:50;12.40;80.56
71206;SHT31;58935;54.498;18.544;2023-04-25T01:40:17;12.37;80.84
71206;SHT31;58935;54.498;18.544;2023-04-25T01:42:44;12.35;80.97
71206;SHT31;58935;54.498;18.544;2023-04-25T01:45:10;12.32;81.03
71206;SHT31;58935;54.498;18.544;2023-04-25T01:47:37;12.31;81.24
71206;SHT31;58935;54.498;18.544;2023-04-25T01:50:05;12.31;81.38
71206;SHT31;58935;54.498;18.544;2023-04-25T01:52:33;12.30;81.54
71206;SHT31;58935;54.498;18.544;2023-04-25T01:54:59;12.29;81.59
71206;SHT31;58935;54.498;18.544;2023-04-25T01:57:27;12.28;81.59
71206;SHT31;58935;54.498;18.544;2023-04-25T02:02:25;12.28;81.83
71206;SHT31;58935;54.498;18.544;2023-04-25T02:04:51;12.27;81.85
71206;SHT31;58935;54.498;18.544;2023-04-25T02:07:17;12.28;81.91
71206;SHT31;58935;54.498;18.544;2023-04-25T02:09:45;12.27;81.98
71206;SHT31;58935;54.498;18.544;2023-04-25T02:12:11;12.27;81.99
71206;SHT31;58935;54.498;18.544;2023-04-25T02:14:39;12.26;81.98
71206;SHT31;58935;54.498;18.544;2023-04-25T02:17:05;12.26;82.10
71206;SHT31;58935;54.498;18.544;2023-04-25T02:19:35;12.24;82.20
71206;SHT31;58935;54.498;18.544;2023-04-25T02:22:00;12.24;82.21
71206;SHT31;58935;54.498;18.544;2023-04-25T02:24:26;12.23;82.31
71206;SHT31;58935;54.498;18.544;2023-04-25T02:26:53;12.23;82.30
71206;SHT31;58935;54.498;18.544;2023-04-25T02:29:20;12.22;82.30
71206;SHT31;58935;54.498;18.544;2023-04-25T02:31:45;12.22;82.38
71206;SHT31;58935;54.498;18.544;2023-04-25T02:34:11;12.21;82.39
71206;SHT31;58935;54.498;18.544;2023-04-25T02:36:36;12.19;82.39
71206;SHT31;58935;54.498;18.544;2023-04-25T02:39:02;12.18;82.37
71206;SHT31;58935;54.498;18.544;2023-04-25T02:41:30;12.16;82.46
71206;SHT31;58935;54.498;18.544;2023-04-25T02:43:55;12.15;82.52
71206;SHT31;58935;54.498;18.544;2023-04-25T02:46:21;12.14;82.52
71206;SHT31;58935;54.498;18.544;2023-04-25T02:48:46;12.14;82.53
71206;SHT31;58935;54.498;18.544;2023-04-25T02:51:12;12.14;82.51
71206;SHT31;58935;54.498;18.544;2023-04-25T02:53:38;12.14;82.45
71206;SHT31;58935;54.498;18.544;2023-04-25T02:56:03;12.14;82.45
71206;SHT31;58935;54.498;18.544;2023-04-25T02:58:29;12.14;82.42
71206;SHT31;58935;54.498;18.544;2023-04-25T03:00:55;12.12;82.55
71206;SHT31;58935;54.498;18.544;2023-04-25T03:03:20;12.11;82.61
71206;SHT31;58935;54.498;18.544;2023-04-25T03:05:48;12.09;82.67
71206;SHT31;58935;54.498;18.544;2023-04-25T03:08:15;12.09;82.72
71206;SHT31;58935;54.498;18.544;2023-04-25T03:10:42;12.07;82.69
71206;SHT31;58935;54.498;18.544;2023-04-25T03:13:08;12.05;82.82
71206;SHT31;58935;54.498;18.544;2023-04-25T03:15:34;12.04;82.89
71206;SHT31;58935;54.498;18.544;2023-04-25T03:18:01;12.03;82.81
71206;SHT31;58935;54.498;18.544;2023-04-25T03:20:27;12.05;82.86
71206;SHT31;58935;54.498;18.544;2023-04-25T03:22:53;12.07;82.86
71206;SHT31;58935;54.498;18.544;2023-04-25T03:25:19;12.08;82.72
71206;SHT31;58935;54.498;18.544;2023-04-25T03:27:44;12.00;81.53
71206;SHT31;58935;54.498;18.544;2023-04-25T03:30:10;11.80;80.35
71206;SHT31;58935;54.498;18.544;2023-04-25T03:32:36;11.68;80.51
71206;SHT31;58935;54.498;18.544;2023-04-25T03:35:04;11.52;80.00
71206;SHT31;58935;54.498;18.544;2023-04-25T03:37:30;11.41;80.12
71206;SHT31;58935;54.498;18.544;2023-04-25T03:39:56;11.31;79.89
71206;SHT31;58935;54.498;18.544;2023-04-25T03:42:21;11.22;79.79
71206;SHT31;58935;54.498;18.544;2023-04-25T03:44:49;11.13;79.52
71206;SHT31;58935;54.498;18.544;2023-04-25T03:47:19;11.03;79.35
71206;SHT31;58935;54.498;18.544;2023-04-25T03:49:44;10.95;79.25
71206;SHT31;58935;54.498;18.544;2023-04-25T03:52:09;10.86;79.18
71206;SHT31;58935;54.498;18.544;2023-04-25T03:54:35;10.76;78.32
71206;SHT31;58935;54.498;18.544;2023-04-25T03:57:01;10.64;77.96
71206;SHT31;58935;54.498;18.544;2023-04-25T03:59:26;10.56;78.15
71206;SHT31;58935;54.498;18.544;2023-04-25T04:01:52;10.50;78.10
71206;SHT31;58935;54.498;18.544;2023-04-25T04:04:19;10.43;78.09
71206;SHT31;58935;54.498;18.544;2023-04-25T04:06:45;10.38;78.44
71206;SHT31;58935;54.498;18.544;2023-04-25T04:09:10;10.31;78.45
71206;SHT31;58935;54.498;18.544;2023-04-25T04:11:37;10.24;78.40
71206;SHT31;58935;54.498;18.544;2023-04-25T04:14:05;10.20;78.47
71206;SHT31;58935;54.498;18.544;2023-04-25T04:16:32;10.19;78.58
71206;SHT31;58935;54.498;18.544;2023-04-25T04:18:58;10.17;78.51
71206;SHT31;58935;54.498;18.544;2023-04-25T04:21:23;10.14;78.50
71206;SHT31;58935;54.498;18.544;2023-04-25T04:23:49;10.08;78.20
71206;SHT31;58935;54.498;18.544;2023-04-25T04:26:15;10.05;78.15
71206;SHT31;58935;54.498;18.544;2023-04-25T04:28:43;10.02;78.23
71206;SHT31;58935;54.498;18.544;2023-04-25T04:31:09;9.98;78.27
71206;SHT31;58935;54.498;18.544;2023-04-25T04:33:35;9.96;78.41
71206;SHT31;58935;54.498;18.544;2023-04-25T04:36:02;9.95;78.42
71206;SHT31;58935;54.498;18.544;2023-04-25T04:38:29;9.93;78.55
71206;SHT31;58935;54.498;18.544;2023-04-25T04:40:55;9.91;78.48
71206;SHT31;58935;54.498;18.544;2023-04-25T04:43:22;9.91;78.56
71206;SHT31;58935;54.498;18.544;2023-04-25T04:45:48;9.90;78.44
71206;SHT31;58935;54.498;18.544;2023-04-25T04:48:15;9.89;78.40
71206;SHT31;58935;54.498;18.544;2023-04-25T04:50:43;9.90;78.40
71206;SHT31;58935;54.498;18.544;2023-04-25T04:53:10;9.89;78.37
71206;SHT31;58935;54.498;18.544;2023-04-25T04:55:36;9.89;78.46
71206;SHT31;58935;54.498;18.544;2023-04-25T04:58:04;9.90;78.60
71206;SHT31;58935;54.498;18.544;2023-04-25T05:00:30;9.92;78.48
71206;SHT31;58935;54.498;18.544;2023-04-25T05:02:58;9.94;78.40
71206;SHT31;58935;54.498;18.544;2023-04-25T05:05:23;9.95;78.36
71206;SHT31;58935;54.498;18.544;2023-04-25T05:07:52;9.96;78.39
71206;SHT31;58935;54.498;18.544;2023-04-25T05:10:18;9.97;78.43
71206;SHT31;58935;54.498;18.544;2023-04-25T05:12:45;9.98;78.54
71206;SHT31;58935;54.498;18.544;2023-04-25T05:15:13;9.99;78.54
71206;SHT31;58935;54.498;18.544;2023-04-25T05:17:41;10.01;78.56
71206;SHT31;58935;54.498;18.544;2023-04-25T05:20:09;10.01;78.48
71206;SHT31;58935;54.498;18.544;2023-04-25T05:22:35;10.02;78.49
71206;SHT31;58935;54.498;18.544;2023-04-25T05:25:01;10.02;78.44
71206;SHT31;58935;54.498;18.544;2023-04-25T05:27:26;10.03;78.40
71206;SHT31;58935;54.498;18.544;2023-04-25T05:29:52;10.05;78.33
71206;SHT31;58935;54.498;18.544;2023-04-25T05:32:17;10.07;78.21
71206;SHT31;58935;54.498;18.544;2023-04-25T05:34:43;10.09;78.13
71206;SHT31;58935;54.498;18.544;2023-04-25T05:37:11;10.13;78.02
71206;SHT31;58935;54.498;18.544;2023-04-25T05:39:36;10.13;77.60
71206;SHT31;58935;54.498;18.544;2023-04-25T05:42:04;10.13;77.22
71206;SHT31;58935;54.498;18.544;2023-04-25T05:44:30;10.14;77.14
71206;SHT31;58935;54.498;18.544;2023-04-25T05:46:56;10.15;77.06
71206;SHT31;58935;54.498;18.544;2023-04-25T05:49:22;10.19;77.19
71206;SHT31;58935;54.498;18.544;2023-04-25T05:51:49;10.20;77.06
71206;SHT31;58935;54.498;18.544;2023-04-25T05:54:15;10.15;76.62
71206;SHT31;58935;54.498;18.544;2023-04-25T05:56:40;10.14;76.39
71206;SHT31;58935;54.498;18.544;2023-04-25T05:59:06;10.14;76.41
71206;SHT31;58935;54.498;18.544;2023-04-25T06:01:34;10.17;76.21
71206;SHT31;58935;54.498;18.544;2023-04-25T06:04:00;10.21;76.07
71206;SHT31;58935;54.498;18.544;2023-04-25T06:06:25;10.23;74.70
71206;SHT31;58935;54.498;18.544;2023-04-25T06:08:51;10.23;74.40
71206;SHT31;58935;54.498;18.544;2023-04-25T06:11:17;10.26;74.61
71206;SHT31;58935;54.498;18.544;2023-04-25T06:13:45;10.30;74.57
71206;SHT31;58935;54.498;18.544;2023-04-25T06:16:11;10.32;74.29
71206;SHT31;58935;54.498;18.544;2023-04-25T06:18:39;10.34;74.11
71206;SHT31;58935;54.498;18.544;2023-04-25T06:21:04;10.33;73.52
71206;SHT31;58935;54.498;18.544;2023-04-25T06:23:30;10.28;73.59
71206;SHT31;58935;54.498;18.544;2023-04-25T06:25:55;10.24;73.57
71206;SHT31;58935;54.498;18.544;2023-04-25T06:28:21;10.20;73.68
71206;SHT31;58935;54.498;18.544;2023-04-25T06:30:47;10.17;73.85
71206;SHT31;58935;54.498;18.544;2023-04-25T06:33:13;10.16;74.08
71206;SHT31;58935;54.498;18.544;2023-04-25T06:35:38;10.14;73.99
71206;SHT31;58935;54.498;18.544;2023-04-25T06:38:04;10.10;73.80
71206;SHT31;58935;54.498;18.544;2023-04-25T06:40:30;10.06;73.99
71206;SHT31;58935;54.498;18.544;2023-04-25T06:42:55;10.06;74.27
71206;SHT31;58935;54.498;18.544;2023-04-25T06:45:21;10.05;74.41
71206;SHT31;58935;54.498;18.544;2023-04-25T06:47:48;10.03;74.40
71206;SHT31;58935;54.498;18.544;2023-04-25T06:50:21;10.02;74.53
71206;SHT31;58935;54.498;18.544;2023-04-25T06:52:47;10.03;74.45
71206;SHT31;58935;54.498;18.544;2023-04-25T06:55:12;10.05;74.57
71206;SHT31;58935;54.498;18.544;2023-04-25T06:57:40;10.06;74.38
71206;SHT31;58935;54.498;18.544;2023-04-25T07:00:05;10.07;74.27
71206;SHT31;58935;54.498;18.544;2023-04-25T07:02:34;10.07;74.29
71206;SHT31;58935;54.498;18.544;2023-04-25T07:05:00;10.07;74.31
71206;SHT31;58935;54.498;18.544;2023-04-25T07:07:28;10.09;74.43
71206;SHT31;58935;54.498;18.544;2023-04-25T07:09:55;10.14;74.44
71206;SHT31;58935;54.498;18.544;2023-04-25T07:12:21;10.14;74.31
71206;SHT31;58935;54.498;18.544;2023-04-25T07:14:47;10.16;74.21
71206;SHT31;58935;54.498;18.544;2023-04-25T07:17:12;10.15;73.97
71206;SHT31;58935;54.498;18.544;2023-04-25T07:19:38;10.15;73.82
71206;SHT31;58935;54.498;18.544;2023-04-25T07:22:05;10.17;73.84
71206;SHT31;58935;54.498;18.544;2023-04-25T07:24:31;10.19;73.69
71206;SHT31;58935;54.498;18.544;2023-04-25T07:26:57;10.17;73.48
71206;SHT31;58935;54.498;18.544;2023-04-25T07:29:23;10.13;73.54
71206;SHT31;58935;54.498;18.544;2023-04-25T07:31:49;10.12;73.87
71206;SHT31;58935;54.498;18.544;2023-04-25T07:34:15;10.16;73.59
71206;SHT31;58935;54.498;18.544;2023-04-25T07:36:41;10.17;73.76
71206;SHT31;58935;54.498;18.544;2023-04-25T07:39:07;10.19;73.46
71206;SHT31;58935;54.498;18.544;2023-04-25T07:41:36;10.21;73.38
71206;SHT31;58935;54.498;18.544;2023-04-25T07:44:01;10.26;73.36
71206;SHT31;58935;54.498;18.544;2023-04-25T07:46:27;10.29;73.16
71206;SHT31;58935;54.498;18.544;2023-04-25T07:48:52;10.31;73.06
71206;SHT31;58935;54.498;18.544;2023-04-25T07:51:18;10.33;73.06
71206;SHT31;58935;54.498;18.544;2023-04-25T07:53:45;10.41;73.20
71206;SHT31;58935;54.498;18.544;2023-04-25T07:56:11;10.49;73.00
71206;SHT31;58935;54.498;18.544;2023-04-25T07:58:37;10.59;72.50
71206;SHT31;58935;54.498;18.544;2023-04-25T08:01:02;10.67;71.83
71206;SHT31;58935;54.498;18.544;2023-04-25T08:03:29;10.74;71.63
71206;SHT31;58935;54.498;18.544;2023-04-25T08:05:54;10.85;71.54
71206;SHT31;58935;54.498;18.544;2023-04-25T08:08:20;10.93;71.13
71206;SHT31;58935;54.498;18.544;2023-04-25T08:10:46;11.00;70.83
71206;SHT31;58935;54.498;18.544;2023-04-25T08:13:13;11.06;70.50
71206;SHT31;58935;54.498;18.544;2023-04-25T08:15:39;11.13;70.36
71206;SHT31;58935;54.498;18.544;2023-04-25T08:18:04;11.20;70.42
71206;SHT31;58935;54.498;18.544;2023-04-25T08:20:30;11.27;70.05
71206;SHT31;58935;54.498;18.544;2023-04-25T08:22:58;11.32;69.73
71206;SHT31;58935;54.498;18.544;2023-04-25T08:25:28;11.38;69.65
71206;SHT31;58935;54.498;18.544;2023-04-25T08:27:58;11.43;69.58
71206;SHT31;58935;54.498;18.544;2023-04-25T08:30:28;11.49;69.52
71206;SHT31;58935;54.498;18.544;2023-04-25T08:33:02;11.53;69.57
71206;SHT31;58935;54.498;18.544;2023-04-25T08:35:28;11.62;69.43
71206;SHT31;58935;54.498;18.544;2023-04-25T08:37:56;11.66;68.83
71206;SHT31;58935;54.498;18.544;2023-04-25T08:40:24;11.68;68.38
71206;SHT31;58935;54.498;18.544;2023-04-25T08:42:56;11.66;68.34
71206;SHT31;58935;54.498;18.544;2023-04-25T08:45:26;11.67;68.46
71206;SHT31;58935;54.498;18.544;2023-04-25T08:47:55;11.68;68.00
71206;SHT31;58935;54.498;18.544;2023-04-25T08:50:23;11.71;67.85
71206;SHT31;58935;54.498;18.544;2023-04-25T08:52:51;11.72;66.48
71206;SHT31;58935;54.498;18.544;2023-04-25T08:55:23;11.66;65.96
71206;SHT31;58935;54.498;18.544;2023-04-25T08:57:49;11.65;66.20
71206;SHT31;58935;54.498;18.544;2023-04-25T09:00:15;11.65;66.48
71206;SHT31;58935;54.498;18.544;2023-04-25T09:02:44;11.66;66.76
71206;SHT31;58935;54.498;18.544;2023-04-25T09:05:13;11.69;66.83
71206;SHT31;58935;54.498;18.544;2023-04-25T09:07:39;11.71;66.38
71206;SHT31;58935;54.498;18.544;2023-04-25T09:10:05;11.74;65.43
71206;SHT31;58935;54.498;18.544;2023-04-25T09:12:31;11.75;64.48
71206;SHT31;58935;54.498;18.544;2023-04-25T09:17:30;11.89;64.83
71206;SHT31;58935;54.498;18.544;2023-04-25T09:20:04;11.98;64.78
71206;SHT31;58935;54.498;18.544;2023-04-25T09:22:33;12.05;64.71
71206;SHT31;58935;54.498;18.544;2023-04-25T09:25:02;12.08;64.47
71206;SHT31;58935;54.498;18.544;2023-04-25T09:27:32;12.09;64.80
71206;SHT31;58935;54.498;18.544;2023-04-25T09:29:58;12.14;64.85
71206;SHT31;58935;54.498;18.544;2023-04-25T09:32:26;12.15;63.95
71206;SHT31;58935;54.498;18.544;2023-04-25T09:34:55;12.18;64.19
71206;SHT31;58935;54.498;18.544;2023-04-25T09:37:23;12.23;64.21
71206;SHT31;58935;54.498;18.544;2023-04-25T09:39:54;12.30;64.16
71206;SHT31;58935;54.498;18.544;2023-04-25T09:42:24;12.38;64.18
71206;SHT31;58935;54.498;18.544;2023-04-25T09:44:53;12.49;64.14
71206;SHT31;58935;54.498;18.544;2023-04-25T09:47:21;12.57;63.85
71206;SHT31;58935;54.498;18.544;2023-04-25T09:49:49;12.60;63.64
71206;SHT31;58935;54.498;18.544;2023-04-25T09:52:18;12.57;63.73
71206;SHT31;58935;54.498;18.544;2023-04-25T09:54:46;12.43;62.95
71206;SHT31;58935;54.498;18.544;2023-04-25T09:57:15;12.28;63.46
71206;SHT31;58935;54.498;18.544;2023-04-25T09:59:45;12.14;63.33
71206;SHT31;58935;54.498;18.544;2023-04-25T10:02:14;11.99;63.88
71206;SHT31;58935;54.498;18.544;2023-04-25T10:04:44;11.90;64.38
71206;SHT31;58935;54.498;18.544;2023-04-25T10:07:17;11.85;64.55
71206;SHT31;58935;54.498;18.544;2023-04-25T10:09:47;11.78;64.44
71206;SHT31;58935;54.498;18.544;2023-04-25T10:12:16;11.75;64.75
71206;SHT31;58935;54.498;18.544;2023-04-25T10:14:42;11.74;64.77
71206;SHT31;58935;54.498;18.544;2023-04-25T10:17:10;11.74;64.96
71206;SHT31;58935;54.498;18.544;2023-04-25T10:19:37;11.80;65.13
71206;SHT31;58935;54.498;18.544;2023-04-25T10:22:07;11.86;65.11
71206;SHT31;58935;54.498;18.544;2023-04-25T10:24:51;11.93;65.15
71206;SHT31;58935;54.498;18.544;2023-04-25T10:27:20;12.02;65.27
71206;SHT31;58935;54.498;18.544;2023-04-25T10:29:46;12.06;63.78
71206;SHT31;58935;54.498;18.544;2023-04-25T10:32:30;12.02;62.50
71206;SHT31;58935;54.498;18.544;2023-04-25T10:34:58;11.94;62.52
71206;SHT31;58935;54.498;18.544;2023-04-25T10:40:21;11.77;62.98
71206;SHT31;58935;54.498;18.544;2023-04-25T10:42:48;11.76;63.19
71206;SHT31;58935;54.498;18.544;2023-04-25T10:45:13;11.79;63.35
71206;SHT31;58935;54.498;18.544;2023-04-25T10:47:43;11.79;63.13
71206;SHT31;58935;54.498;18.544;2023-04-25T10:50:10;11.80;63.32
71206;SHT31;58935;54.498;18.544;2023-04-25T10:52:38;11.85;63.66
71206;SHT31;58935;54.498;18.544;2023-04-25T10:55:05;11.88;63.57
71206;SHT31;58935;54.498;18.544;2023-04-25T11:00:08;11.99;63.49
71206;SHT31;58935;54.498;18.544;2023-04-25T11:07:50;12.14;63.34
71206;SHT31;58935;54.498;18.544;2023-04-25T11:12:53;12.30;62.91
71206;SHT31;58935;54.498;18.544;2023-04-25T11:15:19;12.38;62.73
71206;SHT31;58935;54.498;18.544;2023-04-25T11:17:47;12.45;62.54
71206;SHT31;58935;54.498;18.544;2023-04-25T11:20:13;12.52;62.36
71206;SHT31;58935;54.498;18.544;2023-04-25T11:22:40;12.59;62.42
71206;SHT31;58935;54.498;18.544;2023-04-25T11:25:07;12.67;62.44
71206;SHT31;58935;54.498;18.544;2023-04-25T11:30:10;12.77;62.24
71206;SHT31;58935;54.498;18.544;2023-04-25T11:32:39;12.78;62.55
71206;SHT31;58935;54.498;18.544;2023-04-25T11:35:06;12.78;62.51
71206;SHT31;58935;54.498;18.544;2023-04-25T11:37:33;12.75;62.18
71206;SHT31;58935;54.498;18.544;2023-04-25T11:39:59;12.70;61.68
71206;SHT31;58935;54.498;18.544;2023-04-25T11:42:25;12.55;60.79
71206;SHT31;58935;54.498;18.544;2023-04-25T11:44:51;12.35;60.98
71206;SHT31;58935;54.498;18.544;2023-04-25T11:47:27;12.18;61.84
71206;SHT31;58935;54.498;18.544;2023-04-25T11:49:57;11.93;64.92
71206;SHT31;58935;54.498;18.544;2023-04-25T11:52:35;11.72;64.58
71206;SHT31;58935;54.498;18.544;2023-04-25T11:55:07;11.58;62.96
71206;SHT31;58935;54.498;18.544;2023-04-25T11:57:34;11.53;63.14
71206;SHT31;58935;54.498;18.544;2023-04-25T12:02:42;11.57;63.13
71206;SHT31;58935;54.498;18.544;2023-04-25T12:05:17;11.61;62.95
71206;SHT31;58935;54.498;18.544;2023-04-25T12:07:46;11.62;62.72
71206;SHT31;58935;54.498;18.544;2023-04-25T12:10:15;11.65;62.81
71206;SHT31;58935;54.498;18.544;2023-04-25T12:12:44;11.66;62.93
71206;SHT31;58935;54.498;18.544;2023-04-25T12:15:12;11.64;62.90
71206;SHT31;58935;54.498;18.544;2023-04-25T12:17:49;11.66;64.23
71206;SHT31;58935;54.498;18.544;2023-04-25T12:20:19;11.69;66.03
71206;SHT31;58935;54.498;18.544;2023-04-25T12:22:49;11.64;68.12
71206;SHT31;58935;54.498;18.544;2023-04-25T12:27:51;11.54;70.02
71206;SHT31;58935;54.498;18.544;2023-04-25T12:30:18;11.49;71.10
71206;SHT31;58935;54.498;18.544;2023-04-25T12:32:47;11.42;71.42
71206;SHT31;58935;54.498;18.544;2023-04-25T12:35:12;11.38;71.60
71206;SHT31;58935;54.498;18.544;2023-04-25T12:37:38;11.36;71.83
71206;SHT31;58935;54.498;18.544;2023-04-25T12:40:06;11.35;71.90
71206;SHT31;58935;54.498;18.544;2023-04-25T12:42:32;11.35;71.92
71206;SHT31;58935;54.498;18.544;2023-04-25T12:44:57;11.36;71.89
71206;SHT31;58935;54.498;18.544;2023-04-25T12:47:23;11.40;71.94
71206;SHT31;58935;54.498;18.544;2023-04-25T12:49:48;11.43;71.99
71206;SHT31;58935;54.498;18.544;2023-04-25T12:52:14;11.52;72.07
71206;SHT31;58935;54.498;18.544;2023-04-25T12:54:39;11.59;71.99
71206;SHT31;58935;54.498;18.544;2023-04-25T12:57:05;11.65;72.00
71206;SHT31;58935;54.498;18.544;2023-04-25T12:59:30;11.70;71.92
71206;SHT31;58935;54.498;18.544;2023-04-25T13:01:56;11.72;72.00
71206;SHT31;58935;54.498;18.544;2023-04-25T13:04:24;11.73;72.00
71206;SHT31;58935;54.498;18.544;2023-04-25T13:06:49;11.72;72.24
71206;SHT31;58935;54.498;18.544;2023-04-25T13:09:15;11.72;72.47
71206;SHT31;58935;54.498;18.544;2023-04-25T13:11:40;11.72;72.54
71206;SHT31;58935;54.498;18.544;2023-04-25T13:14:06;11.71;72.80
71206;SHT31;58935;54.498;18.544;2023-04-25T13:16:34;11.69;72.89
71206;SHT31;58935;54.498;18.544;2023-04-25T13:18:59;11.68;73.00
71206;SHT31;58935;54.498;18.544;2023-04-25T13:21:25;11.70;73.07
71206;SHT31;58935;54.498;18.544;2023-04-25T13:23:56;11.74;72.74
71206;SHT31;58935;54.498;18.544;2023-04-25T13:26:22;11.77;72.59
71206;SHT31;58935;54.498;18.544;2023-04-25T13:28:50;11.81;72.28
71206;SHT31;58935;54.498;18.544;2023-04-25T13:31:18;11.88;72.36
71206;SHT31;58935;54.498;18.544;2023-04-25T13:37:25;11.98;72.62
71206;SHT31;58935;54.498;18.544;2023-04-25T13:39:54;12.08;72.55
71206;SHT31;58935;54.498;18.544;2023-04-25T13:42:21;12.18;72.36
71206;SHT31;58935;54.498;18.544;2023-04-25T13:44:49;12.28;71.80
71206;SHT31;58935;54.498;18.544;2023-04-25T13:47:14;12.34;71.36
71206;SHT31;58935;54.498;18.544;2023-04-25T13:49:40;12.40;70.86
71206;SHT31;58935;54.498;18.544;2023-04-25T13:52:05;12.45;70.33
71206;SHT31;58935;54.498;18.544;2023-04-25T13:54:31;12.54;70.23
71206;SHT31;58935;54.498;18.544;2023-04-25T13:56:56;12.58;69.96
71206;SHT31;58935;54.498;18.544;2023-04-25T13:59:24;12.58;70.14
71206;SHT31;58935;54.498;18.544;2023-04-25T14:01:50;12.51;70.48
71206;SHT31;58935;54.498;18.544;2023-04-25T14:04:17;12.43;70.61
71206;SHT31;58935;54.498;18.544;2023-04-25T14:06:42;12.31;70.69
71206;SHT31;58935;54.498;18.544;2023-04-25T14:09:08;12.22;70.59
71206;SHT31;58935;54.498;18.544;2023-04-25T14:11:36;12.09;70.50
71206;SHT31;58935;54.498;18.544;2023-04-25T14:14:06;11.96;70.60
71206;SHT31;58935;54.498;18.544;2023-04-25T14:16:32;11.87;70.81
71206;SHT31;58935;54.498;18.544;2023-04-25T14:19:00;11.80;70.53
71206;SHT31;58935;54.498;18.544;2023-04-25T14:21:26;11.72;70.93
71206;SHT31;58935;54.498;18.544;2023-04-25T14:23:53;11.64;71.36
71206;SHT31;58935;54.498;18.544;2023-04-25T14:26:19;11.52;69.59
71206;SHT31;58935;54.498;18.544;2023-04-25T14:28:45;11.39;68.64
71206;SHT31;58935;54.498;18.544;2023-04-25T14:31:10;11.24;67.59
71206;SHT31;58935;54.498;18.544;2023-04-25T14:33:36;11.11;65.75
71206;SHT31;58935;54.498;18.544;2023-04-25T14:36:04;10.98;63.76
71206;SHT31;58935;54.498;18.544;2023-04-25T14:38:30;10.89;63.56
71206;SHT31;58935;54.498;18.544;2023-04-25T14:40:58;10.79;63.62
71206;SHT31;58935;54.498;18.544;2023-04-25T14:43:26;10.69;62.79
71206;SHT31;58935;54.498;18.544;2023-04-25T14:45:52;10.61;62.64
71206;SHT31;58935;54.498;18.544;2023-04-25T14:48:18;10.48;62.25
71206;SHT31;58935;54.498;18.544;2023-04-25T14:50:44;10.34;62.67
71206;SHT31;58935;54.498;18.544;2023-04-25T14:53:15;10.21;62.90
71206;SHT31;58935;54.498;18.544;2023-04-25T14:55:40;10.13;63.45
71206;SHT31;58935;54.498;18.544;2023-04-25T14:58:10;10.08;63.86
71206;SHT31;58935;54.498;18.544;2023-04-25T15:00:36;10.08;64.22
71206;SHT31;58935;54.498;18.544;2023-04-25T15:03:04;10.07;64.01
71206;SHT31;58935;54.498;18.544;2023-04-25T15:05:30;10.02;63.69
71206;SHT31;58935;54.498;18.544;2023-04-25T15:07:56;9.97;63.60
71206;SHT31;58935;54.498;18.544;2023-04-25T15:10:23;9.93;63.59
71206;SHT31;58935;54.498;18.544;2023-04-25T15:12:49;9.92;63.70
71206;SHT31;58935;54.498;18.544;2023-04-25T15:15:15;9.91;63.87
71206;SHT31;58935;54.498;18.544;2023-04-25T15:17:43;9.91;63.62
71206;SHT31;58935;54.498;18.544;2023-04-25T15:20:09;9.90;63.61
71206;SHT31;58935;54.498;18.544;2023-04-25T15:22:39;9.88;63.32
71206;SHT31;58935;54.498;18.544;2023-04-25T15:25:06;9.85;63.53
71206;SHT31;58935;54.498;18.544;2023-04-25T15:27:34;9.85;63.56
71206;SHT31;58935;54.498;18.544;2023-04-25T15:30:05;9.83;63.57
71206;SHT31;58935;54.498;18.544;2023-04-25T15:32:33;9.81;63.24
71206;SHT31;58935;54.498;18.544;2023-04-25T15:35:01;9.78;63.29
71206;SHT31;58935;54.498;18.544;2023-04-25T15:37:31;9.77;63.11
71206;SHT31;58935;54.498;18.544;2023-04-25T15:42:35;9.75;62.92
71206;SHT31;58935;54.498;18.544;2023-04-25T15:45:05;9.72;62.64
71206;SHT31;58935;54.498;18.544;2023-04-25T15:47:33;9.69;62.44
71206;SHT31;58935;54.498;18.544;2023-04-25T15:50:03;9.69;62.64